sensor_id;sensor_type;location;lat;lon;timestamp;pressure;altitude;pressure_sealevel;temperature;humidity
22333;BME280;11334;36.986;-121.936;2023-05-08T00:01:50;101477.66;;;30.76;27.37
22333;BME280;11334;36.986;-121.936;2023-05-08T00:04:16;101480.16;;;30.78;26.83
22333;BME280;11334;36.986;-121.936;2023-05-08T00:06:45;101476.31;;;30.79;26.62
22333;BME280;11334;36.986;-121.936;2023-05-08T00:09:11;101475.84;;;31.01;26.20
22333;BME280;11334;36.986;-121.936;2023-05-08T00:11:38;101479.41;;;31.12;26.70
22333;BME280;11334;36.986;-121.936;2023-05-08T00:14:04;101473.66;;;31.28;27.23
22333;BME280;11334;36.986;-121.936;2023-05-08T00:16:31;101473.16;;;31.31;27.48
22333;BME280;11334;36.986;-121.936;2023-05-08T00:18:57;101466.00;;;31.40;27.81
22333;BME280;11334;36.986;-121.936;2023-05-08T00:21:24;101465.75;;;31.76;28.04
22333;BME280;11334;36.986;-121.936;2023-05-08T00:23:50;101473.38;;;31.74;26.49
22333;BME280;11334;36.986;-121.936;2023-05-08T00:26:17;101469.81;;;31.73;27.12
22333;BME280;11334;36.986;-121.936;2023-05-08T00:28:43;101463.22;;;31.89;27.10
22333;BME280;11334;36.986;-121.936;2023-05-08T00:31:09;101467.50;;;32.19;26.67
22333;BME280;11334;36.986;-121.936;2023-05-08T00:33:36;101464.72;;;32.39;26.73
22333;BME280;11334;36.986;-121.936;2023-05-08T00:36:03;101469.81;;;32.65;26.24
22333;BME280;11334;36.986;-121.936;2023-05-08T00:38:31;101466.03;;;32.51;26.77
22333;BME280;11334;36.986;-121.936;2023-05-08T00:40:57;101455.78;;;32.77;26.31
22333;BME280;11334;36.986;-121.936;2023-05-08T00:43:24;101462.84;;;32.87;25.28
22333;BME280;11334;36.986;-121.936;2023-05-08T00:45:56;101451.97;;;33.10;24.93
22333;BME280;11334;36.986;-121.936;2023-05-08T00:48:24;101461.34;;;33.05;24.95
22333;BME280;11334;36.986;-121.936;2023-05-08T00:50:54;101452.47;;;33.17;25.38
22333;BME280;11334;36.986;-121.936;2023-05-08T00:53:21;101445.84;;;33.18;24.66
22333;BME280;11334;36.986;-121.936;2023-05-08T00:55:49;101449.66;;;33.27;23.93
22333;BME280;11334;36.986;-121.936;2023-05-08T00:58:16;101441.66;;;33.31;24.35
22333;BME280;11334;36.986;-121.936;2023-05-08T01:00:43;101445.38;;;33.44;24.11
22333;BME280;11334;36.986;-121.936;2023-05-08T01:03:11;101435.59;;;33.34;23.84
22333;BME280;11334;36.986;-121.936;2023-05-08T01:05:39;101436.06;;;33.41;24.29
22333;BME280;11334;36.986;-121.936;2023-05-08T01:08:06;101440.88;;;33.58;23.30
22333;BME280;11334;36.986;-121.936;2023-05-08T01:13:30;101431.09;;;33.99;23.45
22333;BME280;11334;36.986;-121.936;2023-05-08T01:16:27;101440.44;;;33.75;23.32
22333;BME280;11334;36.986;-121.936;2023-05-08T01:33:52;101444.41;;;34.56;23.05
22333;BME280;11334;36.986;-121.936;2023-05-08T01:36:39;101440.34;;;34.31;22.97
22333;BME280;11334;36.986;-121.936;2023-05-08T01:39:18;101442.44;;;33.64;24.06
22333;BME280;11334;36.986;-121.936;2023-05-08T01:42:12;101438.94;;;33.59;23.80
22333;BME280;11334;36.986;-121.936;2023-05-08T01:44:50;101443.34;;;33.27;23.87
22333;BME280;11334;36.986;-121.936;2023-05-08T01:47:19;101448.63;;;32.71;25.09
22333;BME280;11334;36.986;-121.936;2023-05-08T01:49:57;101446.47;;;32.05;25.38
22333;BME280;11334;36.986;-121.936;2023-05-08T01:52:33;101444.81;;;30.81;26.98
22333;BME280;11334;36.986;-121.936;2023-05-08T01:55:07;101442.88;;;30.06;27.42
22333;BME280;11334;36.986;-121.936;2023-05-08T01:57:37;101455.31;;;29.47;28.62
22333;BME280;11334;36.986;-121.936;2023-05-08T02:00:05;101443.94;;;28.71;29.71
22333;BME280;11334;36.986;-121.936;2023-05-08T02:02:33;101447.34;;;28.15;29.58
22333;BME280;11334;36.986;-121.936;2023-05-08T02:05:05;101440.06;;;27.01;30.45
22333;BME280;11334;36.986;-121.936;2023-05-08T02:07:33;101447.56;;;26.95;31.32
22333;BME280;11334;36.986;-121.936;2023-05-08T02:10:04;101455.81;;;26.44;31.72
22333;BME280;11334;36.986;-121.936;2023-05-08T02:12:31;101457.44;;;25.84;34.47
22333;BME280;11334;36.986;-121.936;2023-05-08T02:15:00;101451.63;;;25.35;34.67
22333;BME280;11334;36.986;-121.936;2023-05-08T02:17:29;101455.31;;;24.89;34.86
22333;BME280;11334;36.986;-121.936;2023-05-08T02:19:58;101456.09;;;24.31;36.78
22333;BME280;11334;36.986;-121.936;2023-05-08T02:22:27;101462.72;;;24.00;38.37
22333;BME280;11334;36.986;-121.936;2023-05-08T02:24:56;101459.31;;;23.69;38.30
22333;BME280;11334;36.986;-121.936;2023-05-08T02:27:27;101458.09;;;23.41;37.97
22333;BME280;11334;36.986;-121.936;2023-05-08T02:29:54;101457.88;;;22.87;38.71
22333;BME280;11334;36.986;-121.936;2023-05-08T02:32:24;101456.03;;;22.51;40.44
22333;BME280;11334;36.986;-121.936;2023-05-08T02:34:50;101466.38;;;22.11;40.56
22333;BME280;11334;36.986;-121.936;2023-05-08T02:37:19;101458.28;;;21.98;42.55
22333;BME280;11334;36.986;-121.936;2023-05-08T02:39:47;101465.22;;;21.62;42.94
22333;BME280;11334;36.986;-121.936;2023-05-08T02:42:14;101458.63;;;21.45;42.65
22333;BME280;11334;36.986;-121.936;2023-05-08T02:44:41;101457.34;;;21.28;43.69
22333;BME280;11334;36.986;-121.936;2023-05-08T02:47:42;101454.03;;;21.01;45.36
22333;BME280;11334;36.986;-121.936;2023-05-08T02:50:17;101446.72;;;20.69;44.87
22333;BME280;11334;36.986;-121.936;2023-05-08T02:52:51;101457.69;;;20.61;45.70
22333;BME280;11334;36.986;-121.936;2023-05-08T02:55:52;101454.50;;;20.45;47.38
22333;BME280;11334;36.986;-121.936;2023-05-08T03:01:46;101459.53;;;20.08;48.29
22333;BME280;11334;36.986;-121.936;2023-05-08T03:04:23;101460.50;;;19.95;47.53
22333;BME280;11334;36.986;-121.936;2023-05-08T03:06:54;101464.13;;;19.81;49.26
22333;BME280;11334;36.986;-121.936;2023-05-08T03:09:23;101462.56;;;19.65;50.20
22333;BME280;11334;36.986;-121.936;2023-05-08T03:12:02;101459.22;;;19.57;50.41
22333;BME280;11334;36.986;-121.936;2023-05-08T03:14:36;101438.78;;;19.35;51.52
22333;BME280;11334;36.986;-121.936;2023-05-08T03:17:06;101456.53;;;19.30;50.93
22333;BME280;11334;36.986;-121.936;2023-05-08T03:19:36;101466.78;;;19.20;51.72
22333;BME280;11334;36.986;-121.936;2023-05-08T03:22:06;101462.75;;;19.10;51.45
22333;BME280;11334;36.986;-121.936;2023-05-08T03:24:37;101464.09;;;18.99;52.58
22333;BME280;11334;36.986;-121.936;2023-05-08T03:27:05;101465.16;;;18.84;53.45
22333;BME280;11334;36.986;-121.936;2023-05-08T03:29:33;101472.00;;;18.87;53.73
22333;BME280;11334;36.986;-121.936;2023-05-08T03:32:02;101464.50;;;18.82;53.78
22333;BME280;11334;36.986;-121.936;2023-05-08T03:34:29;101467.63;;;18.65;54.15
22333;BME280;11334;36.986;-121.936;2023-05-08T03:36:59;101470.50;;;18.43;55.23
22333;BME280;11334;36.986;-121.936;2023-05-08T03:39:25;101473.84;;;18.31;55.83
22333;BME280;11334;36.986;-121.936;2023-05-08T03:41:53;101478.13;;;18.11;57.29
22333;BME280;11334;36.986;-121.936;2023-05-08T03:44:20;101482.69;;;18.10;56.80
22333;BME280;11334;36.986;-121.936;2023-05-08T03:46:48;101485.75;;;18.07;57.22
22333;BME280;11334;36.986;-121.936;2023-05-08T03:49:16;101491.81;;;18.02;57.99
22333;BME280;11334;36.986;-121.936;2023-05-08T03:51:42;101486.19;;;17.82;58.63
22333;BME280;11334;36.986;-121.936;2023-05-08T03:54:09;101497.53;;;17.70;60.06
22333;BME280;11334;36.986;-121.936;2023-05-08T03:56:36;101500.69;;;17.73;60.35
22333;BME280;11334;36.986;-121.936;2023-05-08T04:04:44;101500.41;;;17.54;62.19
22333;BME280;11334;36.986;-121.936;2023-05-08T04:07:34;101500.75;;;17.37;63.07
22333;BME280;11334;36.986;-121.936;2023-05-08T04:10:11;101492.97;;;17.28;62.68
22333;BME280;11334;36.986;-121.936;2023-05-08T04:15:23;101497.94;;;17.31;63.49
22333;BME280;11334;36.986;-121.936;2023-05-08T04:17:59;101503.00;;;17.26;63.13
22333;BME280;11334;36.986;-121.936;2023-05-08T04:20:30;101502.88;;;17.19;63.68
22333;BME280;11334;36.986;-121.936;2023-05-08T04:22:58;101517.19;;;17.12;64.07
22333;BME280;11334;36.986;-121.936;2023-05-08T04:25:25;101522.09;;;17.01;64.36
22333;BME280;11334;36.986;-121.936;2023-05-08T04:27:52;101521.97;;;16.94;64.39
22333;BME280;11334;36.986;-121.936;2023-05-08T04:30:19;101524.00;;;16.92;64.94
22333;BME280;11334;36.986;-121.936;2023-05-08T04:32:46;101528.13;;;16.80;64.91
22333;BME280;11334;36.986;-121.936;2023-05-08T04:35:14;101526.06;;;16.82;65.20
22333;BME280;11334;36.986;-121.936;2023-05-08T04:37:41;101520.31;;;16.71;66.21
22333;BME280;11334;36.986;-121.936;2023-05-08T04:40:08;101528.34;;;16.71;65.93
22333;BME280;11334;36.986;-121.936;2023-05-08T04:42:35;101523.81;;;16.72;65.90
22333;BME280;11334;36.986;-121.936;2023-05-08T04:45:04;101527.22;;;16.66;66.30
22333;BME280;11334;36.986;-121.936;2023-05-08T04:47:30;101534.94;;;16.53;67.08
22333;BME280;11334;36.986;-121.936;2023-05-08T04:49:56;101532.09;;;16.54;67.01
22333;BME280;11334;36.986;-121.936;2023-05-08T04:52:22;101541.06;;;16.39;67.50
22333;BME280;11334;36.986;-121.936;2023-05-08T04:54:49;101538.06;;;16.34;67.84
22333;BME280;11334;36.986;-121.936;2023-05-08T04:57:15;101535.13;;;16.21;68.31
22333;BME280;11334;36.986;-121.936;2023-05-08T04:59:41;101539.97;;;16.18;68.63
22333;BME280;11334;36.986;-121.936;2023-05-08T05:02:07;101533.63;;;16.03;69.32
22333;BME280;11334;36.986;-121.936;2023-05-08T05:04:34;101527.69;;;15.85;69.79
22333;BME280;11334;36.986;-121.936;2023-05-08T05:07:02;101535.03;;;15.91;70.19
22333;BME280;11334;36.986;-121.936;2023-05-08T05:09:28;101533.69;;;15.87;70.40
22333;BME280;11334;36.986;-121.936;2023-05-08T05:11:55;101513.84;;;15.66;71.39
22333;BME280;11334;36.986;-121.936;2023-05-08T05:14:21;101527.22;;;15.74;71.56
22333;BME280;11334;36.986;-121.936;2023-05-08T05:16:47;101531.38;;;15.69;71.56
22333;BME280;11334;36.986;-121.936;2023-05-08T05:19:14;101535.22;;;15.66;72.11
22333;BME280;11334;36.986;-121.936;2023-05-08T05:21:40;101531.75;;;15.58;71.88
22333;BME280;11334;36.986;-121.936;2023-05-08T05:24:06;101525.75;;;15.48;71.86
22333;BME280;11334;36.986;-121.936;2023-05-08T05:26:33;101521.09;;;15.42;73.32
22333;BME280;11334;36.986;-121.936;2023-05-08T05:28:59;101521.28;;;15.33;73.31
22333;BME280;11334;36.986;-121.936;2023-05-08T05:31:27;101528.13;;;15.27;73.44
22333;BME280;11334;36.986;-121.936;2023-05-08T05:33:54;101533.09;;;15.15;74.23
22333;BME280;11334;36.986;-121.936;2023-05-08T05:36:21;101521.59;;;15.14;74.50
22333;BME280;11334;36.986;-121.936;2023-05-08T05:38:47;101522.72;;;15.04;74.93
22333;BME280;11334;36.986;-121.936;2023-05-08T05:41:13;101513.41;;;15.00;74.97
22333;BME280;11334;36.986;-121.936;2023-05-08T05:43:40;101519.56;;;15.00;74.73
22333;BME280;11334;36.986;-121.936;2023-05-08T05:46:07;101526.56;;;14.93;75.27
22333;BME280;11334;36.986;-121.936;2023-05-08T05:48:34;101520.56;;;14.84;76.27
22333;BME280;11334;36.986;-121.936;2023-05-08T05:51:01;101511.19;;;14.80;76.33
22333;BME280;11334;36.986;-121.936;2023-05-08T05:53:27;101514.53;;;14.82;75.95
22333;BME280;11334;36.986;-121.936;2023-05-08T05:55:54;101510.56;;;14.78;76.06
22333;BME280;11334;36.986;-121.936;2023-05-08T05:58:20;101507.69;;;14.79;76.40
22333;BME280;11334;36.986;-121.936;2023-05-08T06:00:46;101514.38;;;14.75;76.71
22333;BME280;11334;36.986;-121.936;2023-05-08T06:03:13;101507.84;;;14.70;76.88
22333;BME280;11334;36.986;-121.936;2023-05-08T06:05:40;101510.50;;;14.62;77.08
22333;BME280;11334;36.986;-121.936;2023-05-08T06:08:06;101517.19;;;14.58;76.78
22333;BME280;11334;36.986;-121.936;2023-05-08T06:10:33;101509.66;;;14.53;77.36
22333;BME280;11334;36.986;-121.936;2023-05-08T06:13:00;101514.97;;;14.46;77.79
22333;BME280;11334;36.986;-121.936;2023-05-08T06:15:26;101502.63;;;14.37;78.80
22333;BME280;11334;36.986;-121.936;2023-05-08T06:17:52;101499.13;;;14.36;78.84
22333;BME280;11334;36.986;-121.936;2023-05-08T06:20:19;101506.63;;;14.41;78.92
22333;BME280;11334;36.986;-121.936;2023-05-08T06:22:48;101519.09;;;14.32;78.58
22333;BME280;11334;36.986;-121.936;2023-05-08T06:25:14;101513.38;;;14.20;78.86
22333;BME280;11334;36.986;-121.936;2023-05-08T06:27:41;101513.72;;;14.17;79.19
22333;BME280;11334;36.986;-121.936;2023-05-08T06:30:08;101517.34;;;14.16;79.52
22333;BME280;11334;36.986;-121.936;2023-05-08T06:32:38;101519.16;;;14.07;79.94
22333;BME280;11334;36.986;-121.936;2023-05-08T06:35:05;101531.66;;;14.07;80.46
22333;BME280;11334;36.986;-121.936;2023-05-08T06:37:31;101530.47;;;14.01;81.02
22333;BME280;11334;36.986;-121.936;2023-05-08T06:39:57;101532.28;;;14.01;80.65
22333;BME280;11334;36.986;-121.936;2023-05-08T06:42:24;101533.50;;;13.81;81.59
22333;BME280;11334;36.986;-121.936;2023-05-08T06:44:50;101529.38;;;13.87;81.74
22333;BME280;11334;36.986;-121.936;2023-05-08T06:47:18;101536.84;;;13.91;81.88
22333;BME280;11334;36.986;-121.936;2023-05-08T06:49:45;101528.16;;;13.81;81.10
22333;BME280;11334;36.986;-121.936;2023-05-08T06:52:11;101534.09;;;13.75;82.05
22333;BME280;11334;36.986;-121.936;2023-05-08T06:54:37;101536.09;;;13.73;82.13
22333;BME280;11334;36.986;-121.936;2023-05-08T06:57:05;101539.06;;;13.70;82.78
22333;BME280;11334;36.986;-121.936;2023-05-08T06:59:33;101532.09;;;13.69;82.19
22333;BME280;11334;36.986;-121.936;2023-05-08T07:01:59;101535.06;;;13.66;83.07
22333;BME280;11334;36.986;-121.936;2023-05-08T07:04:25;101542.47;;;13.55;83.21
22333;BME280;11334;36.986;-121.936;2023-05-08T07:06:51;101543.31;;;13.56;83.39
22333;BME280;11334;36.986;-121.936;2023-05-08T07:09:18;101540.31;;;13.58;82.75
22333;BME280;11334;36.986;-121.936;2023-05-08T07:11:44;101544.91;;;13.49;83.43
22333;BME280;11334;36.986;-121.936;2023-05-08T07:14:11;101533.06;;;13.43;83.31
22333;BME280;11334;36.986;-121.936;2023-05-08T07:16:37;101534.44;;;13.47;83.24
22333;BME280;11334;36.986;-121.936;2023-05-08T07:19:03;101536.03;;;13.40;83.92
22333;BME280;11334;36.986;-121.936;2023-05-08T07:21:29;101535.03;;;13.41;83.66
22333;BME280;11334;36.986;-121.936;2023-05-08T07:23:56;101531.19;;;13.36;83.69
22333;BME280;11334;36.986;-121.936;2023-05-08T07:26:22;101527.19;;;13.32;83.49
22333;BME280;11334;36.986;-121.936;2023-05-08T07:28:48;101536.75;;;13.25;83.71
22333;BME280;11334;36.986;-121.936;2023-05-08T07:31:15;101532.13;;;13.27;84.17
22333;BME280;11334;36.986;-121.936;2023-05-08T07:33:41;101529.09;;;13.22;84.80
22333;BME280;11334;36.986;-121.936;2023-05-08T07:36:08;101526.50;;;13.13;85.43
22333;BME280;11334;36.986;-121.936;2023-05-08T07:38:34;101522.84;;;13.14;85.58
22333;BME280;11334;36.986;-121.936;2023-05-08T07:41:01;101508.59;;;12.97;86.18
22333;BME280;11334;36.986;-121.936;2023-05-08T07:43:27;101521.78;;;13.07;86.29
22333;BME280;11334;36.986;-121.936;2023-05-08T07:45:53;101524.00;;;13.11;85.90
22333;BME280;11334;36.986;-121.936;2023-05-08T07:48:20;101518.47;;;13.05;85.49
22333;BME280;11334;36.986;-121.936;2023-05-08T07:50:48;101519.75;;;13.01;86.14
22333;BME280;11334;36.986;-121.936;2023-05-08T07:53:15;101524.25;;;12.83;87.46
22333;BME280;11334;36.986;-121.936;2023-05-08T07:55:41;101529.13;;;12.88;87.56
22333;BME280;11334;36.986;-121.936;2023-05-08T07:58:08;101518.63;;;12.86;87.28
22333;BME280;11334;36.986;-121.936;2023-05-08T08:00:34;101515.31;;;12.75;87.43
22333;BME280;11334;36.986;-121.936;2023-05-08T08:03:01;101519.78;;;12.74;87.13
22333;BME280;11334;36.986;-121.936;2023-05-08T08:05:27;101515.53;;;12.64;87.94
22333;BME280;11334;36.986;-121.936;2023-05-08T08:07:53;101523.06;;;12.68;87.83
22333;BME280;11334;36.986;-121.936;2023-05-08T08:10:20;101522.00;;;12.62;88.06
22333;BME280;11334;36.986;-121.936;2023-05-08T08:12:46;101520.56;;;12.67;87.40
22333;BME280;11334;36.986;-121.936;2023-05-08T08:15:12;101515.16;;;12.59;88.18
22333;BME280;11334;36.986;-121.936;2023-05-08T08:17:38;101503.63;;;12.51;88.19
22333;BME280;11334;36.986;-121.936;2023-05-08T08:20:05;101509.31;;;12.56;88.42
22333;BME280;11334;36.986;-121.936;2023-05-08T08:22:32;101511.59;;;12.51;87.81
22333;BME280;11334;36.986;-121.936;2023-05-08T08:24:58;101497.00;;;12.55;87.35
22333;BME280;11334;36.986;-121.936;2023-05-08T08:27:24;101498.81;;;12.54;87.20
22333;BME280;11334;36.986;-121.936;2023-05-08T08:29:50;101500.66;;;12.54;87.06
22333;BME280;11334;36.986;-121.936;2023-05-08T08:32:16;101499.97;;;12.52;87.42
22333;BME280;11334;36.986;-121.936;2023-05-08T08:34:43;101499.44;;;12.48;86.94
22333;BME280;11334;36.986;-121.936;2023-05-08T08:37:09;101491.00;;;12.35;87.77
22333;BME280;11334;36.986;-121.936;2023-05-08T08:39:38;101503.59;;;12.33;87.35
22333;BME280;11334;36.986;-121.936;2023-05-08T08:42:04;101502.97;;;12.39;87.21
22333;BME280;11334;36.986;-121.936;2023-05-08T08:44:31;101502.59;;;12.34;86.41
22333;BME280;11334;36.986;-121.936;2023-05-08T08:46:58;101504.94;;;12.37;86.92
22333;BME280;11334;36.986;-121.936;2023-05-08T08:49:30;101500.47;;;12.21;87.30
22333;BME280;11334;36.986;-121.936;2023-05-08T08:52:09;101492.69;;;12.10;88.04
22333;BME280;11334;36.986;-121.936;2023-05-08T08:54:36;101500.91;;;12.16;88.79
22333;BME280;11334;36.986;-121.936;2023-05-08T08:57:06;101496.72;;;12.14;89.03
22333;BME280;11334;36.986;-121.936;2023-05-08T08:59:36;101489.59;;;12.14;88.62
22333;BME280;11334;36.986;-121.936;2023-05-08T09:02:10;101494.91;;;12.14;87.98
22333;BME280;11334;36.986;-121.936;2023-05-08T09:04:37;101499.00;;;12.09;88.58
22333;BME280;11334;36.986;-121.936;2023-05-08T09:07:04;101500.66;;;12.10;88.46
22333;BME280;11334;36.986;-121.936;2023-05-08T09:09:32;101492.59;;;12.02;89.24
22333;BME280;11334;36.986;-121.936;2023-05-08T09:12:00;101494.31;;;11.94;89.08
22333;BME280;11334;36.986;-121.936;2023-05-08T09:14:27;101492.31;;;11.96;88.94
22333;BME280;11334;36.986;-121.936;2023-05-08T09:16:53;101494.84;;;11.97;88.94
22333;BME280;11334;36.986;-121.936;2023-05-08T09:19:20;101501.81;;;11.98;88.14
22333;BME280;11334;36.986;-121.936;2023-05-08T09:21:47;101499.75;;;11.92;88.22
22333;BME280;11334;36.986;-121.936;2023-05-08T09:24:14;101491.50;;;11.95;88.19
22333;BME280;11334;36.986;-121.936;2023-05-08T09:26:41;101489.66;;;11.96;88.25
22333;BME280;11334;36.986;-121.936;2023-05-08T09:29:12;101501.81;;;11.98;88.72
22333;BME280;11334;36.986;-121.936;2023-05-08T09:31:56;101491.66;;;11.94;88.04
22333;BME280;11334;36.986;-121.936;2023-05-08T09:34:29;101493.63;;;11.92;88.21
22333;BME280;11334;36.986;-121.936;2023-05-08T09:37:10;101492.25;;;11.78;89.49
22333;BME280;11334;36.986;-121.936;2023-05-08T09:39:37;101476.94;;;11.72;89.73
22333;BME280;11334;36.986;-121.936;2023-05-08T09:42:08;101472.47;;;11.73;89.36
22333;BME280;11334;36.986;-121.936;2023-05-08T09:44:51;101480.84;;;11.68;89.44
22333;BME280;11334;36.986;-121.936;2023-05-08T09:47:22;101495.81;;;11.69;90.03
22333;BME280;11334;36.986;-121.936;2023-05-08T09:50:02;101495.00;;;11.69;90.14
22333;BME280;11334;36.986;-121.936;2023-05-08T09:52:31;101491.63;;;11.67;89.61
22333;BME280;11334;36.986;-121.936;2023-05-08T09:57:25;101493.06;;;11.62;89.90
22333;BME280;11334;36.986;-121.936;2023-05-08T09:59:59;101492.06;;;11.63;90.49
22333;BME280;11334;36.986;-121.936;2023-05-08T10:02:26;101492.66;;;11.57;90.86
22333;BME280;11334;36.986;-121.936;2023-05-08T10:04:52;101485.13;;;11.52;90.57
22333;BME280;11334;36.986;-121.936;2023-05-08T10:07:29;101487.47;;;11.55;90.84
22333;BME280;11334;36.986;-121.936;2023-05-08T10:10:01;101480.25;;;11.48;90.53
22333;BME280;11334;36.986;-121.936;2023-05-08T10:12:29;101480.25;;;11.48;90.59
22333;BME280;11334;36.986;-121.936;2023-05-08T10:14:56;101486.38;;;11.48;90.47
22333;BME280;11334;36.986;-121.936;2023-05-08T10:18:04;101475.38;;;11.43;90.74
22333;BME280;11334;36.986;-121.936;2023-05-08T10:20:32;101483.19;;;11.35;91.82
22333;BME280;11334;36.986;-121.936;2023-05-08T10:23:00;101480.41;;;11.28;92.13
22333;BME280;11334;36.986;-121.936;2023-05-08T10:25:33;101476.09;;;11.27;92.59
22333;BME280;11334;36.986;-121.936;2023-05-08T10:28:15;101473.56;;;11.25;92.65
22333;BME280;11334;36.986;-121.936;2023-05-08T10:30:48;101479.00;;;11.24;92.01
22333;BME280;11334;36.986;-121.936;2023-05-08T10:33:20;101479.72;;;11.26;92.26
22333;BME280;11334;36.986;-121.936;2023-05-08T10:35:50;101479.06;;;11.14;92.56
22333;BME280;11334;36.986;-121.936;2023-05-08T10:38:18;101483.78;;;11.20;92.98
22333;BME280;11334;36.986;-121.936;2023-05-08T10:40:45;101493.81;;;11.26;92.25
22333;BME280;11334;36.986;-121.936;2023-05-08T10:43:13;101481.53;;;11.16;92.82
22333;BME280;11334;36.986;-121.936;2023-05-08T10:45:41;101484.91;;;11.18;92.89
22333;BME280;11334;36.986;-121.936;2023-05-08T10:51:11;101490.50;;;11.15;93.16
22333;BME280;11334;36.986;-121.936;2023-05-08T10:56:06;101501.09;;;11.15;92.12
22333;BME280;11334;36.986;-121.936;2023-05-08T10:58:34;101501.81;;;11.07;92.38
22333;BME280;11334;36.986;-121.936;2023-05-08T11:03:41;101501.22;;;11.13;92.57
22333;BME280;11334;36.986;-121.936;2023-05-08T11:06:07;101497.22;;;11.09;92.23
22333;BME280;11334;36.986;-121.936;2023-05-08T11:08:46;101498.88;;;11.10;93.20
22333;BME280;11334;36.986;-121.936;2023-05-08T11:11:21;101502.50;;;11.09;93.19
22333;BME280;11334;36.986;-121.936;2023-05-08T11:14:19;101498.59;;;11.04;91.75
22333;BME280;11334;36.986;-121.936;2023-05-08T11:19:22;101507.53;;;11.03;92.34
22333;BME280;11334;36.986;-121.936;2023-05-08T11:24:58;101509.34;;;10.93;93.05
22333;BME280;11334;36.986;-121.936;2023-05-08T11:27:37;101514.78;;;10.92;92.63
22333;BME280;11334;36.986;-121.936;2023-05-08T11:30:23;101517.00;;;10.96;92.34
22333;BME280;11334;36.986;-121.936;2023-05-08T11:46:03;101525.00;;;10.77;93.93
22333;BME280;11334;36.986;-121.936;2023-05-08T11:48:33;101528.72;;;10.84;93.60
22333;BME280;11334;36.986;-121.936;2023-05-08T11:51:00;101521.47;;;10.77;93.05
22333;BME280;11334;36.986;-121.936;2023-05-08T11:53:30;101524.41;;;10.74;94.11
22333;BME280;11334;36.986;-121.936;2023-05-08T11:55:57;101513.38;;;10.60;93.78
22333;BME280;11334;36.986;-121.936;2023-05-08T11:58:23;101513.09;;;10.72;93.81
22333;BME280;11334;36.986;-121.936;2023-05-08T12:00:49;101528.34;;;10.70;93.08
22333;BME280;11334;36.986;-121.936;2023-05-08T12:03:20;101530.28;;;10.68;93.18
22333;BME280;11334;36.986;-121.936;2023-05-08T12:05:48;101535.16;;;10.73;93.30
22333;BME280;11334;36.986;-121.936;2023-05-08T12:08:16;101520.38;;;10.61;92.92
22333;BME280;11334;36.986;-121.936;2023-05-08T12:13:15;101526.34;;;10.53;93.45
22333;BME280;11334;36.986;-121.936;2023-05-08T12:15:43;101524.13;;;10.58;94.42
22333;BME280;11334;36.986;-121.936;2023-05-08T12:18:10;101528.72;;;10.56;94.01
22333;BME280;11334;36.986;-121.936;2023-05-08T12:20:36;101528.59;;;10.58;93.23
22333;BME280;11334;36.986;-121.936;2023-05-08T12:23:02;101523.56;;;10.55;94.04
22333;BME280;11334;36.986;-121.936;2023-05-08T12:25:29;101515.59;;;10.55;93.87
22333;BME280;11334;36.986;-121.936;2023-05-08T12:27:55;101511.56;;;10.51;94.31
22333;BME280;11334;36.986;-121.936;2023-05-08T12:30:22;101517.16;;;10.48;95.29
22333;BME280;11334;36.986;-121.936;2023-05-08T12:32:48;101510.31;;;10.45;95.77
22333;BME280;11334;36.986;-121.936;2023-05-08T12:35:18;101503.75;;;10.49;95.12
22333;BME280;11334;36.986;-121.936;2023-05-08T12:37:45;101503.75;;;10.49;95.38
22333;BME280;11334;36.986;-121.936;2023-05-08T12:40:44;101503.47;;;10.34;95.83
22333;BME280;11334;36.986;-121.936;2023-05-08T12:43:11;101517.41;;;10.36;96.51
22333;BME280;11334;36.986;-121.936;2023-05-08T12:45:41;101506.53;;;10.39;96.45
22333;BME280;11334;36.986;-121.936;2023-05-08T12:48:10;101499.84;;;10.44;95.74
22333;BME280;11334;36.986;-121.936;2023-05-08T12:50:38;101505.56;;;10.49;96.00
22333;BME280;11334;36.986;-121.936;2023-05-08T12:53:13;101514.34;;;10.49;95.92
22333;BME280;11334;36.986;-121.936;2023-05-08T12:55:52;101508.09;;;10.50;96.69
22333;BME280;11334;36.986;-121.936;2023-05-08T12:58:19;101514.06;;;10.52;96.86
22333;BME280;11334;36.986;-121.936;2023-05-08T13:00:50;101513.63;;;10.47;97.20
22333;BME280;11334;36.986;-121.936;2023-05-08T13:03:28;101515.72;;;10.35;98.81
22333;BME280;11334;36.986;-121.936;2023-05-08T13:05:56;101522.44;;;10.39;98.73
22333;BME280;11334;36.986;-121.936;2023-05-08T13:08:36;101527.44;;;10.41;99.07
22333;BME280;11334;36.986;-121.936;2023-05-08T13:11:04;101525.94;;;10.48;99.06
22333;BME280;11334;36.986;-121.936;2023-05-08T13:13:32;101522.72;;;10.54;98.97
22333;BME280;11334;36.986;-121.936;2023-05-08T13:16:05;101523.84;;;10.61;98.93
22333;BME280;11334;36.986;-121.936;2023-05-08T13:18:32;101517.97;;;10.67;99.75
22333;BME280;11334;36.986;-121.936;2023-05-08T13:21:01;101516.72;;;10.62;100.00
22333;BME280;11334;36.986;-121.936;2023-05-08T13:23:28;101523.28;;;10.67;100.00
22333;BME280;11334;36.986;-121.936;2023-05-08T13:25:54;101532.22;;;10.75;100.00
22333;BME280;11334;36.986;-121.936;2023-05-08T13:28:21;101540.03;;;10.86;100.00
22333;BME280;11334;36.986;-121.936;2023-05-08T13:30:47;101538.78;;;10.90;100.00
22333;BME280;11334;36.986;-121.936;2023-05-08T13:33:13;101544.22;;;10.98;100.00